الصفحة الرئيسية
METAR-TAF:

METAR-TAF

مطار :

مطار لارنكا الدولي

لارنكا, قبرص

دائرة عرض: 34-53N, خط طول: 033-38E, ارتفاع: 2 متر

مراقبة الطقس الحالي

تاريخ ووقت الإصدار 17 دقيقة قبل الساعة 19:00UTC
ريح 5 عقدة من الشمال/الشمال الغربي
درجة الحرارة 15°درجة مئوية
الرطوبة 59%
ضغط 1023 hPa
الرؤية 10 كم أو أكثر
غيوم قليلة على ارتفاع 4000 قدم

METAR: LCLK 171900Z 34005KT 9999 FEW040 15/07 Q1023 NOSIG

زمن: 21:17 (19:17 UTC)

توقعات

تاريخ ووقت الإصدار 1ساعة و 47 دقيقة قبل الساعة 17:30UTC
التوقعات صالحة من17 الساعة 18 UTC إلى 18 الساعة 18 UTC
ريح 10 عقدة من الشرق/الشمال الشرقي
الرؤية 10 كم أو أكثر
غيوم متفرقة على ارتفاع 2000 قدم
أصبح
من 17 الساعة 18 UTC إلى 17 الساعة 21 UTC
ريح 7 عقدة من الشمال/الشمال الغربي
أصبح
من 18 الساعة 07 UTC إلى 18 الساعة 10 UTC
ريح 12 عقدة من الشرق/الشمال الشرقي

TAF: LCLK 171730Z 1718/1818 06010KT 9999 SCT020 BECMG 1718/1721 34007KT BECMG 1807/1810 06012KT

أرصاد الطقس والتوقعات من أكثر من 4000 مطار (تقارير الطقس للمطار METAR والتنبؤ بالطقس بالمطارTAF).

المحطات المتاحة هي النقط الصفراء والحمراء على الخريطة.

حرك المؤشر فوق النقطة لمعرفة اسم المحطة.

ثم انقر لمعرفة أرصاد وتوقعات الطقس.

لتغيير الخارطة: اضغط على الأزرار الخضراء مع رمز الصليب الأسود للتكبير. على الزر الأخضر مع شرطة للتصغير، أو على الأسهم الخضراء للخرائط المجاورة.


METAR-TAF: